sensor_id;sensor_type;location;lat;lon;timestamp;temperature;humidity
12847;DHT22;6492;48.128;8.320;2022-08-19T05:00:30;15.20;81.40
12847;DHT22;6492;48.128;8.320;2022-08-19T07:41:11;15.80;70.50
12847;DHT22;6492;48.128;8.320;2022-08-19T07:45:53;15.80;70.60
12847;DHT22;6492;48.128;8.320;2022-08-19T07:50:11;15.90;68.90
12847;DHT22;6492;48.128;8.320;2022-08-19T07:55:04;15.80;69.50
12847;DHT22;6492;48.128;8.320;2022-08-19T07:59:55;16.00;67.80
12847;DHT22;6492;48.128;8.320;2022-08-19T08:04:19;16.20;65.40
12847;DHT22;6492;48.128;8.320;2022-08-19T08:08:39;16.40;61.10
12847;DHT22;6492;48.128;8.320;2022-08-19T08:12:58;16.60;61.20
12847;DHT22;6492;48.128;8.320;2022-08-19T08:17:03;16.50;57.90
12847;DHT22;6492;48.128;8.320;2022-08-19T08:21:07;16.50;59.70
12847;DHT22;6492;48.128;8.320;2022-08-19T08:25:16;16.40;58.40
12847;DHT22;6492;48.128;8.320;2022-08-19T08:29:20;16.50;58.90
12847;DHT22;6492;48.128;8.320;2022-08-19T08:33:26;16.60;59.70
12847;DHT22;6492;48.128;8.320;2022-08-19T08:37:45;16.70;60.20
12847;DHT22;6492;48.128;8.320;2022-08-19T08:41:53;16.90;56.40
12847;DHT22;6492;48.128;8.320;2022-08-19T08:46:05;17.00;56.10
12847;DHT22;6492;48.128;8.320;2022-08-19T08:50:14;16.90;52.20
12847;DHT22;6492;48.128;8.320;2022-08-19T08:54:27;17.00;54.70
12847;DHT22;6492;48.128;8.320;2022-08-19T08:58:39;16.90;54.20
12847;DHT22;6492;48.128;8.320;2022-08-19T09:02:46;16.80;52.90
12847;DHT22;6492;48.128;8.320;2022-08-19T09:07:12;16.70;55.10
12847;DHT22;6492;48.128;8.320;2022-08-19T09:11:46;16.60;54.90
12847;DHT22;6492;48.128;8.320;2022-08-19T09:15:58;16.50;56.30
12847;DHT22;6492;48.128;8.320;2022-08-19T09:20:13;16.30;56.90
12847;DHT22;6492;48.128;8.320;2022-08-19T09:24:17;16.40;56.80
12847;DHT22;6492;48.128;8.320;2022-08-19T09:28:21;16.40;58.70
12847;DHT22;6492;48.128;8.320;2022-08-19T09:32:23;16.30;58.00
12847;DHT22;6492;48.128;8.320;2022-08-19T09:36:27;16.20;58.10
12847;DHT22;6492;48.128;8.320;2022-08-19T09:40:35;16.20;59.20
12847;DHT22;6492;48.128;8.320;2022-08-19T09:44:37;16.30;59.10
12847;DHT22;6492;48.128;8.320;2022-08-19T09:48:40;16.40;57.60
12847;DHT22;6492;48.128;8.320;2022-08-19T09:53:16;16.40;56.70
12847;DHT22;6492;48.128;8.320;2022-08-19T09:57:49;16.30;58.00
12847;DHT22;6492;48.128;8.320;2022-08-19T10:02:01;16.20;58.10
12847;DHT22;6492;48.128;8.320;2022-08-19T10:10:41;16.50;58.10
12847;DHT22;6492;48.128;8.320;2022-08-19T10:14:46;16.80;58.70
12847;DHT22;6492;48.128;8.320;2022-08-19T10:18:49;16.90;55.10
12847;DHT22;6492;48.128;8.320;2022-08-19T10:22:51;17.10;52.70
12847;DHT22;6492;48.128;8.320;2022-08-19T10:27:01;17.60;53.20
12847;DHT22;6492;48.128;8.320;2022-08-19T10:31:06;17.30;51.60
12847;DHT22;6492;48.128;8.320;2022-08-19T10:35:27;17.30;49.90
12847;DHT22;6492;48.128;8.320;2022-08-19T10:39:36;17.40;51.60
12847;DHT22;6492;48.128;8.320;2022-08-19T10:43:39;18.00;51.80
12847;DHT22;6492;48.128;8.320;2022-08-19T10:47:55;18.10;50.20
12847;DHT22;6492;48.128;8.320;2022-08-19T10:52:13;17.30;47.30
12847;DHT22;6492;48.128;8.320;2022-08-19T10:56:46;17.60;49.40
12847;DHT22;6492;48.128;8.320;2022-08-19T11:51:09;19.50;31.00
12847;DHT22;6492;48.128;8.320;2022-08-19T11:55:11;19.30;32.00
12847;DHT22;6492;48.128;8.320;2022-08-19T11:59:13;19.30;31.30
12847;DHT22;6492;48.128;8.320;2022-08-19T12:03:15;19.60;32.00
12847;DHT22;6492;48.128;8.320;2022-08-19T13:18:22;20.10;26.50
12847;DHT22;6492;48.128;8.320;2022-08-19T13:22:25;20.60;24.10
12847;DHT22;6492;48.128;8.320;2022-08-19T13:26:41;21.00;20.90
12847;DHT22;6492;48.128;8.320;2022-08-19T13:35:45;21.80;19.90
12847;DHT22;6492;48.128;8.320;2022-08-19T13:39:48;21.80;18.50
12847;DHT22;6492;48.128;8.320;2022-08-19T13:44:01;22.10;17.70
12847;DHT22;6492;48.128;8.320;2022-08-19T13:48:05;22.60;19.20
12847;DHT22;6492;48.128;8.320;2022-08-19T13:52:10;22.90;14.60
12847;DHT22;6492;48.128;8.320;2022-08-19T13:56:20;23.10;13.80
12847;DHT22;6492;48.128;8.320;2022-08-19T14:00:23;23.30;14.60
12847;DHT22;6492;48.128;8.320;2022-08-19T14:04:28;23.50;12.80
12847;DHT22;6492;48.128;8.320;2022-08-19T14:08:31;23.50;11.80
12847;DHT22;6492;48.128;8.320;2022-08-19T14:12:33;23.40;11.80
12847;DHT22;6492;48.128;8.320;2022-08-19T14:16:35;23.40;13.80
12847;DHT22;6492;48.128;8.320;2022-08-19T14:20:37;23.50;13.50
12847;DHT22;6492;48.128;8.320;2022-08-19T14:24:40;23.70;12.10
12847;DHT22;6492;48.128;8.320;2022-08-19T14:28:43;23.60;11.60
12847;DHT22;6492;48.128;8.320;2022-08-19T14:33:02;23.40;12.60
12847;DHT22;6492;48.128;8.320;2022-08-19T14:37:05;22.90;12.10
12847;DHT22;6492;48.128;8.320;2022-08-19T14:41:18;22.60;12.90
12847;DHT22;6492;48.128;8.320;2022-08-19T14:45:20;22.40;13.00
12847;DHT22;6492;48.128;8.320;2022-08-19T14:49:22;22.20;13.60
12847;DHT22;6492;48.128;8.320;2022-08-19T14:53:28;22.20;13.60
12847;DHT22;6492;48.128;8.320;2022-08-19T14:57:32;22.00;14.70
12847;DHT22;6492;48.128;8.320;2022-08-19T15:01:33;21.80;15.50
12847;DHT22;6492;48.128;8.320;2022-08-19T15:05:35;21.60;15.90
12847;DHT22;6492;48.128;8.320;2022-08-19T15:09:39;21.50;17.00
12847;DHT22;6492;48.128;8.320;2022-08-19T15:13:50;21.30;15.90
12847;DHT22;6492;48.128;8.320;2022-08-19T15:18:09;20.90;17.80
12847;DHT22;6492;48.128;8.320;2022-08-19T15:31:31;19.80;23.00
12847;DHT22;6492;48.128;8.320;2022-08-19T17:49:51;18.00;31.30
12847;DHT22;6492;48.128;8.320;2022-08-19T17:59:00;18.20;31.40
12847;DHT22;6492;48.128;8.320;2022-08-19T18:11:58;18.10;32.00
12847;DHT22;6492;48.128;8.320;2022-08-19T19:26:28;15.90;47.90
12847;DHT22;6492;48.128;8.320;2022-08-19T19:31:10;15.80;48.50
12847;DHT22;6492;48.128;8.320;2022-08-19T19:39:41;15.50;50.90
12847;DHT22;6492;48.128;8.320;2022-08-19T19:44:30;15.40;52.10
12847;DHT22;6492;48.128;8.320;2022-08-19T19:48:47;15.50;52.70
12847;DHT22;6492;48.128;8.320;2022-08-19T19:57:22;15.30;54.10
12847;DHT22;6492;48.128;8.320;2022-08-19T20:01:28;15.40;55.30
12847;DHT22;6492;48.128;8.320;2022-08-19T20:05:35;15.40;54.60
12847;DHT22;6492;48.128;8.320;2022-08-19T20:10:13;15.40;54.60
12847;DHT22;6492;48.128;8.320;2022-08-19T20:15:01;15.30;54.90
12847;DHT22;6492;48.128;8.320;2022-08-19T20:20:10;15.20;56.00
12847;DHT22;6492;48.128;8.320;2022-08-19T20:29:48;15.10;58.50
12847;DHT22;6492;48.128;8.320;2022-08-19T20:34:30;15.10;58.70
12847;DHT22;6492;48.128;8.320;2022-08-19T20:38:50;14.90;59.60
12847;DHT22;6492;48.128;8.320;2022-08-19T20:47:17;14.80;60.00
12847;DHT22;6492;48.128;8.320;2022-08-19T20:51:29;15.00;61.20
12847;DHT22;6492;48.128;8.320;2022-08-19T21:00:21;14.90;57.40
12847;DHT22;6492;48.128;8.320;2022-08-19T21:05:00;15.00;56.20
12847;DHT22;6492;48.128;8.320;2022-08-19T21:22:42;15.10;54.30
12847;DHT22;6492;48.128;8.320;2022-08-19T21:27:24;15.10;56.10
12847;DHT22;6492;48.128;8.320;2022-08-19T21:40:05;15.20;56.70
12847;DHT22;6492;48.128;8.320;2022-08-19T21:44:07;15.40;58.20
12847;DHT22;6492;48.128;8.320;2022-08-19T21:48:09;15.40;59.30
12847;DHT22;6492;48.128;8.320;2022-08-19T21:52:20;15.20;60.10
12847;DHT22;6492;48.128;8.320;2022-08-19T22:19:17;15.00;62.40
12847;DHT22;6492;48.128;8.320;2022-08-19T22:23:19;15.10;65.00
12847;DHT22;6492;48.128;8.320;2022-08-19T22:31:46;14.90;64.00
12847;DHT22;6492;48.128;8.320;2022-08-19T22:35:51;14.80;67.50
12847;DHT22;6492;48.128;8.320;2022-08-19T22:39:53;14.90;66.90
12847;DHT22;6492;48.128;8.320;2022-08-19T22:48:09;14.70;66.70
12847;DHT22;6492;48.128;8.320;2022-08-19T22:52:15;15.70;69.50
12847;DHT22;6492;48.128;8.320;2022-08-19T22:56:21;14.80;70.70
12847;DHT22;6492;48.128;8.320;2022-08-19T23:00:50;14.60;71.10
12847;DHT22;6492;48.128;8.320;2022-08-19T23:04:53;14.60;69.30
12847;DHT22;6492;48.128;8.320;2022-08-19T23:08:56;14.50;71.40
12847;DHT22;6492;48.128;8.320;2022-08-19T23:12:59;14.50;71.90
12847;DHT22;6492;48.128;8.320;2022-08-19T23:17:02;14.30;71.40
12847;DHT22;6492;48.128;8.320;2022-08-19T23:21:18;14.30;72.10
12847;DHT22;6492;48.128;8.320;2022-08-19T23:25:25;15.20;73.90
12847;DHT22;6492;48.128;8.320;2022-08-19T23:41:52;13.60;73.00
12847;DHT22;6492;48.128;8.320;2022-08-19T23:45:55;13.50;75.70
12847;DHT22;6492;48.128;8.320;2022-08-19T23:58:20;13.30;74.00
